• Join FlightAware (Why Join?)
  • Login
  • US Flag 
12:00PM EDT


 

Airport Tracker/Info


-or-


 

Live Flight TrackerFlight Track Log ✈ JBU24 ✈ 08-May-2013 ✈ KJFK - KSYR

Flight Track Log - Related Links

Times and Time Zones

All times are in EDT time to prevent confusion due to time zone crossing. See the JBU24 flight status page for this flight to view local times or setup timezone preferences in your user account.

Time Position Orientation Groundspeed Altitude Reporting Facility
EDT Latitude Longitude Course Direction KTS MPH feet Rate Location/Type
08:48PM 40.6000 -73.8000 14° North 157 181 1,700  Level New York TRACON
08:49PM 40.5833 -73.7667 123° Southeast 217 250 4,200 2,640 Climbing New York TRACON
08:50PM 40.9268 -73.6116 21° North  Level FlightAware Approximate
08:51PM 41.0301 -73.5577 27° Northeast  Level FlightAware Approximate
08:51PM 40.6831 -73.6306 46° Northeast 255 293 9,800  Level Boston Center
08:52PM 41.1293 -73.4916 27° Northeast  Level FlightAware Approximate
08:52PM 40.7608 -73.5636 33° Northeast 289 333 11,700  Level Boston Center
08:53PM 41.2327 -73.4391 14° North  Level FlightAware Approximate
08:53PM 40.8594 -73.4939 28° Northeast 325 374 13,900  Level Boston Center
08:54PM 40.9975 -73.4550 12° North 378 435 16,700 2,400 Climbing Boston Center
08:55PM 41.1144 -73.4236 11° North 423 487 18,800 1,980 Climbing Boston Center
08:56PM 41.2397 -73.3869 12° North 438 504 20,700 1,560 Climbing Boston Center
08:57PM 41.3608 -73.3500 13° North 443 510 22,000 600 Climbing Boston Center
08:58PM 41.4822 -73.3047 16° North 449 517 22,000  Level Boston Center
08:59PM 41.5706 -73.1947 43° Northeast 428 493 22,000  Level Boston Center
09:01PM 41.6794 -73.1239 26° Northeast 428 493 22,000  Level Boston Center
09:02PM 41.8250 -73.1422 355° North 414 476 22,000  Level Boston Center
09:03PM 41.9458 -73.1631 353° North 419 482 22,000  Level Boston Center
09:04PM 42.0917 -73.1897 352° North 430 495 22,000  Level Boston Center
09:05PM 42.2144 -73.2108 353° North 436 502 22,000  Level Boston Center
09:06PM 42.3350 -73.2322 353° North 441 507 22,000  Level Boston Center
09:07PM 42.4431 -73.2983 336° Northwest 430 495 22,000  Level Boston Center
09:08PM 42.4900 -73.4200 298° West 416 479 22,000  Level Boston Center
09:09PM 42.5428 -73.5814 294° West 421 484 22,000  Level Boston Center
09:10PM 42.5889 -73.7317 293° West 421 484 22,000  Level Boston Center
09:11PM 42.6331 -73.8850 291° West 426 490 22,000  Level Boston Center
09:12PM 42.6853 -74.0358 295° West 438 504 22,000  Level Boston Center
09:13PM 42.7308 -74.1869 292° West 438 504 22,000 -900 Level Boston Center
09:14PM 42.7764 -74.3408 292° West 438 504 20,200 -2,220 Descending Boston Center
09:15PM 42.8258 -74.4981 293° West 429 494 17,600 -2,160 Descending Boston Center
09:16PM 42.8669 -74.6383 292° West 415 478 15,900 -1,440 Descending Boston Center
09:17PM 42.8983 -74.7386 293° West 409 471 14,800 -1,320 Descending Boston Center
09:18PM 42.9450 -74.8964 292° West 393 452 13,300 -1,440 Descending Boston Center
09:19PM 42.9858 -75.0286 293° West 382 440 12,000 -1,320 Descending Boston Center
09:20PM 43.0225 -75.1581 291° West 376 433 10,700 -1,080 Descending Boston Center
09:21PM 43.0358 -75.2894 278° West 363 418 9,900 -1,020 Descending Boston Center
09:22PM 43.0828 -75.4167 297° West 300 345 8,600 -1,380 Descending Boston Center
09:23PM 43.1256 -75.5239 299° West 296 341 7,000 -1,500 Descending Boston Center
09:24PM 43.1589 -75.5997 301° West 298 343 5,800 -1,560 Descending Boston Center
09:25PM 43.2000 -75.6958 300° West 293 337 4,200 -1,200 Descending Boston Center
09:26PM 43.2328 -75.7944 295° West 293 337 3,400 -660 Descending Boston Center
09:27PM 43.2589 -75.8958 290° West 287 330 2,900 -300 Descending Boston Center
09:28PM 43.2850 -75.9972 290° West 287 330 2,900  Level Boston Center
09:29PM 43.3047 -76.0981 285° West 282 325 2,900  Level Boston Center
09:30PM 43.3056 -76.2011 271° West 282 325 2,900 -360 Level Boston Center
09:31PM 43.2697 -76.2731 236° Southwest 245 282 2,200 -480 Descending Boston Center
09:31PM 43.2550 -76.2747 185° South 190 219 2,300 60 Climbing Boston Center
09:32PM 43.2161 -76.2525 157° South 162 186 2,300 -120 Level Boston Center
09:33PM 43.1783 -76.1989 134° Southeast 162 186 2,100 -480 Descending Boston Center
09:34PM 43.1544 -76.1689 138° Southeast 122 140 1,400 -660 Descending Boston Center
09:35PM 43.1306 -76.1333 133° Southeast 118 136 800 -600 Descending Boston Center